createdAt,value
2017-12-01T00:01:00.135Z,37.40
2017-12-01T00:03:27.538Z,37.38
2017-12-01T00:05:54.956Z,37.42
2017-12-01T00:08:22.431Z,37.44
2017-12-01T00:10:49.819Z,37.45
2017-12-01T00:13:17.289Z,37.54
2017-12-01T00:15:44.807Z,37.63
2017-12-01T00:18:12.204Z,37.64
2017-12-01T00:20:39.705Z,37.67
2017-12-01T00:23:07.137Z,37.68
2017-12-01T00:25:34.521Z,37.59
2017-12-01T00:28:01.933Z,37.57
2017-12-01T00:30:29.385Z,37.59
2017-12-01T00:32:56.761Z,37.70
2017-12-01T00:35:24.162Z,37.79
2017-12-01T00:37:51.566Z,37.67
2017-12-01T00:40:18.965Z,37.80
2017-12-01T00:42:46.471Z,37.84
2017-12-01T00:45:13.886Z,37.89
2017-12-01T00:47:41.395Z,37.89
2017-12-01T00:50:09.252Z,37.95
2017-12-01T00:52:36.630Z,37.92
2017-12-01T00:55:04.100Z,38.03
2017-12-01T00:57:31.478Z,38.11
2017-12-01T00:59:58.871Z,37.98
2017-12-01T01:02:26.408Z,38.07
2017-12-01T01:04:53.810Z,38.09
2017-12-01T01:07:21.350Z,38.02
2017-12-01T01:09:48.814Z,38.12
2017-12-01T01:12:16.180Z,38.04
2017-12-01T01:14:43.609Z,38.08
2017-12-01T01:17:11.075Z,38.13
2017-12-01T01:19:38.447Z,38.23
2017-12-01T01:22:05.874Z,38.22
2017-12-01T01:24:33.254Z,38.17
2017-12-01T01:27:00.685Z,38.19
2017-12-01T01:29:28.040Z,38.22
2017-12-01T01:31:55.460Z,38.27
2017-12-01T01:34:22.917Z,38.24
2017-12-01T01:36:50.405Z,38.34
2017-12-01T01:39:17.780Z,38.30
2017-12-01T01:41:45.207Z,38.24
2017-12-01T01:44:12.648Z,38.30
2017-12-01T01:46:40.205Z,38.32
2017-12-01T01:49:07.622Z,38.36
2017-12-01T01:51:35.040Z,38.27
2017-12-01T01:54:02.406Z,38.44
2017-12-01T01:56:29.809Z,38.38
2017-12-01T01:58:57.235Z,38.36
2017-12-01T02:01:24.650Z,38.45
2017-12-01T02:03:52.155Z,39.19
2017-12-01T02:06:19.514Z,38.99
2017-12-01T02:08:46.979Z,38.98
2017-12-01T02:11:14.386Z,38.77
2017-12-01T02:13:41.749Z,38.82
2017-12-01T02:16:09.156Z,38.84
2017-12-01T02:18:36.561Z,38.92
2017-12-01T02:21:03.967Z,38.84
2017-12-01T02:23:31.377Z,39.02
2017-12-01T02:25:58.778Z,39.02
2017-12-01T02:28:26.162Z,39.01
2017-12-01T02:30:53.567Z,38.61
2017-12-01T02:33:20.928Z,38.68
2017-12-01T02:35:48.318Z,38.70
2017-12-01T02:38:15.720Z,38.56
2017-12-01T02:40:43.087Z,38.53
2017-12-01T02:43:10.502Z,38.51
2017-12-01T02:45:37.896Z,38.36
2017-12-01T02:48:05.294Z,38.34
2017-12-01T02:50:32.694Z,38.23
2017-12-01T02:53:00.049Z,38.23
2017-12-01T02:55:27.444Z,38.40
2017-12-01T02:57:54.802Z,38.19
2017-12-01T03:00:22.239Z,38.14
2017-12-01T03:02:49.599Z,38.07
2017-12-01T03:05:16.990Z,38.19
2017-12-01T03:07:44.495Z,38.18
2017-12-01T03:10:11.875Z,38.37
2017-12-01T03:12:39.215Z,38.25
2017-12-01T03:15:06.640Z,38.00
2017-12-01T03:17:34.037Z,38.15
2017-12-01T03:20:01.489Z,38.09
2017-12-01T03:22:28.862Z,38.26
2017-12-01T03:24:56.298Z,38.25
2017-12-01T03:27:23.686Z,38.08
2017-12-01T03:29:51.054Z,37.92
2017-12-01T03:32:18.451Z,38.08
2017-12-01T03:34:45.822Z,38.12
2017-12-01T03:37:13.203Z,38.12
2017-12-01T03:39:40.635Z,38.11
2017-12-01T03:42:07.998Z,38.10
2017-12-01T03:44:35.424Z,37.96
2017-12-01T03:47:02.827Z,37.89
2017-12-01T03:49:30.207Z,37.89
2017-12-01T03:51:57.566Z,38.01
2017-12-01T03:54:24.954Z,38.12
2017-12-01T03:56:52.362Z,37.96
2017-12-01T03:59:19.816Z,37.93
2017-12-01T04:01:47.380Z,38.13
2017-12-01T04:04:14.787Z,37.97
2017-12-01T04:06:42.222Z,37.89
2017-12-01T04:09:09.625Z,38.00
2017-12-01T04:11:37.063Z,37.94
2017-12-01T04:14:04.424Z,37.97
2017-12-01T04:16:31.882Z,37.87
2017-12-01T04:18:59.296Z,37.98
2017-12-01T04:21:26.818Z,38.07
2017-12-01T04:23:54.182Z,37.92
2017-12-01T04:26:21.657Z,37.97
2017-12-01T04:28:49.071Z,37.78
2017-12-01T04:31:16.568Z,37.74
2017-12-01T04:33:43.972Z,37.81
2017-12-01T04:36:11.414Z,37.73
2017-12-01T04:38:38.770Z,37.67
2017-12-01T04:41:06.175Z,37.61
2017-12-01T04:43:33.529Z,37.46
2017-12-01T04:46:00.956Z,37.45
2017-12-01T04:48:28.434Z,37.43
2017-12-01T04:50:55.851Z,37.45
2017-12-01T04:53:23.236Z,37.44
2017-12-01T04:55:50.730Z,37.26
2017-12-01T04:58:18.971Z,37.44
2017-12-01T05:00:46.378Z,37.32
2017-12-01T05:03:13.898Z,37.42
2017-12-01T05:05:41.323Z,37.32
2017-12-01T05:08:08.747Z,37.25
2017-12-01T05:10:36.161Z,37.20
2017-12-01T05:13:03.561Z,37.25
2017-12-01T05:15:30.939Z,37.31
2017-12-01T05:17:58.311Z,37.08
2017-12-01T05:20:25.881Z,37.13
2017-12-01T05:22:53.425Z,37.08
2017-12-01T05:25:20.875Z,37.16
2017-12-01T05:27:48.349Z,37.14
2017-12-01T05:30:15.763Z,36.97
2017-12-01T05:32:43.303Z,37.15
2017-12-01T05:35:10.805Z,37.03
2017-12-01T05:37:38.216Z,36.90
2017-12-01T05:40:05.620Z,36.89
2017-12-01T05:42:33.018Z,36.95
2017-12-01T05:45:00.459Z,36.86
2017-12-01T05:47:27.866Z,36.84
2017-12-01T05:49:55.239Z,36.76
2017-12-01T05:52:22.684Z,36.73
2017-12-01T05:54:50.085Z,36.80
2017-12-01T05:57:17.499Z,36.93
2017-12-01T05:59:44.982Z,36.83
2017-12-01T06:02:12.365Z,36.73
2017-12-01T06:04:39.838Z,36.73
2017-12-01T06:07:07.199Z,36.80
2017-12-01T06:09:34.643Z,36.82
2017-12-01T06:12:02.161Z,36.77
2017-12-01T06:14:29.642Z,36.83
2017-12-01T06:16:57.109Z,36.89
2017-12-01T06:19:24.532Z,36.85
2017-12-01T06:21:51.993Z,36.79
2017-12-01T06:24:19.355Z,36.78
2017-12-01T06:26:46.838Z,36.92
2017-12-01T06:29:14.303Z,36.97
2017-12-01T06:31:41.724Z,36.73
2017-12-01T06:34:09.131Z,36.77
2017-12-01T06:36:36.563Z,36.94
2017-12-01T06:39:04.021Z,36.72
2017-12-01T06:41:31.447Z,36.87
2017-12-01T06:43:58.826Z,39.92
2017-12-01T06:46:26.236Z,40.00
2017-12-01T06:48:53.669Z,40.32
2017-12-01T06:51:21.126Z,40.14
2017-12-01T06:53:48.569Z,39.88
2017-12-01T06:56:16.317Z,40.77
2017-12-01T06:58:43.758Z,39.78
2017-12-01T07:01:11.222Z,39.72
2017-12-01T07:03:38.703Z,39.95
2017-12-01T07:06:06.345Z,39.81
2017-12-01T07:08:33.893Z,39.96
2017-12-01T07:11:01.421Z,40.26
2017-12-01T07:13:28.965Z,40.57
2017-12-01T07:15:56.519Z,39.92
2017-12-01T07:18:23.956Z,40.17
2017-12-01T07:20:51.409Z,40.21
2017-12-01T07:23:19.336Z,40.39
2017-12-01T07:25:46.893Z,40.27
2017-12-01T07:28:14.291Z,40.35
2017-12-01T07:30:41.769Z,41.15
2017-12-01T07:33:09.191Z,40.21
2017-12-01T07:35:36.581Z,39.99
2017-12-01T07:38:03.968Z,40.47
2017-12-01T07:40:31.462Z,40.59
2017-12-01T07:42:58.852Z,40.03
2017-12-01T07:45:26.350Z,40.14
2017-12-01T07:47:53.737Z,40.17
2017-12-01T07:50:21.225Z,40.11
2017-12-01T07:52:48.675Z,40.29
2017-12-01T07:55:16.045Z,40.05
2017-12-01T07:57:43.601Z,39.90
2017-12-01T08:00:11.257Z,40.35
2017-12-01T08:02:38.778Z,40.84
2017-12-01T08:05:06.296Z,40.34
2017-12-01T08:07:34.041Z,40.91
2017-12-01T08:10:01.477Z,40.87
2017-12-01T08:12:28.960Z,40.72
2017-12-01T08:14:56.409Z,40.94
2017-12-01T08:17:23.875Z,40.64
2017-12-01T08:19:51.326Z,40.65
2017-12-01T08:22:18.747Z,40.91
2017-12-01T08:24:46.225Z,40.72
2017-12-01T08:27:13.619Z,40.83
2017-12-01T08:29:41.119Z,40.81
2017-12-01T08:32:08.556Z,40.51
2017-12-01T08:34:35.962Z,40.24
2017-12-01T08:37:03.365Z,40.47
2017-12-01T08:39:30.783Z,40.14
2017-12-01T08:41:58.193Z,40.20
2017-12-01T08:44:25.655Z,40.22
2017-12-01T08:46:53.151Z,40.80
2017-12-01T08:49:20.606Z,40.60
2017-12-01T08:54:23.974Z,40.40
2017-12-01T08:56:51.646Z,40.58
2017-12-01T08:59:19.094Z,40.90
2017-12-01T09:01:47.042Z,40.45
2017-12-01T09:04:15.695Z,40.68
2017-12-01T09:06:43.938Z,40.37
2017-12-01T09:09:11.494Z,40.20
2017-12-01T09:11:38.940Z,39.85
2017-12-01T09:14:07.554Z,39.79
2017-12-01T09:16:36.214Z,40.08
2017-12-01T09:19:06.233Z,40.01
2017-12-01T09:21:33.810Z,40.21
2017-12-01T09:24:01.318Z,40.21
2017-12-01T09:26:31.249Z,40.51
2017-12-01T09:28:58.675Z,40.18
2017-12-01T09:31:26.234Z,40.33
2017-12-01T09:33:53.693Z,40.18
2017-12-01T09:36:21.176Z,40.03
2017-12-01T09:38:48.789Z,40.16
2017-12-01T09:41:16.297Z,40.01
2017-12-01T09:43:43.689Z,39.89
2017-12-01T09:46:12.164Z,39.77
2017-12-01T09:48:39.678Z,39.57
2017-12-01T09:51:07.208Z,39.77
2017-12-01T09:53:34.688Z,40.12
2017-12-01T09:56:02.219Z,39.84
2017-12-01T09:58:29.725Z,39.70
2017-12-01T10:00:57.133Z,39.80
2017-12-01T10:03:24.547Z,40.19
2017-12-01T10:05:51.971Z,39.90
2017-12-01T10:08:19.478Z,39.63
2017-12-01T10:10:46.922Z,39.58
2017-12-01T10:13:14.510Z,39.63
2017-12-01T10:15:41.969Z,39.95
2017-12-01T10:18:09.634Z,40.27
2017-12-01T10:20:37.167Z,39.90
2017-12-01T10:23:04.866Z,40.31
2017-12-01T10:25:34.322Z,40.27
2017-12-01T10:28:01.903Z,40.46
2017-12-01T10:30:29.343Z,39.94
2017-12-01T10:32:56.842Z,39.80
2017-12-01T10:35:24.410Z,40.05
2017-12-01T10:37:52.034Z,39.60
2017-12-01T10:40:19.525Z,39.58
2017-12-01T10:42:47.005Z,40.20
2017-12-01T10:45:14.465Z,39.59
2017-12-01T10:47:41.991Z,39.61
2017-12-01T10:53:12.074Z,40.13
2017-12-01T10:55:41.636Z,40.32
2017-12-01T10:58:09.670Z,40.55
2017-12-01T11:00:41.554Z,40.47
2017-12-01T11:03:09.126Z,40.16
2017-12-01T11:05:36.628Z,40.54
2017-12-01T11:08:09.544Z,40.81
2017-12-01T11:10:38.342Z,40.57
2017-12-01T11:13:05.872Z,40.30
2017-12-01T11:15:33.501Z,40.35
2017-12-01T11:18:02.114Z,40.48
2017-12-01T11:20:38.129Z,40.03
2017-12-01T11:23:06.075Z,40.64
2017-12-01T11:25:33.937Z,40.28
2017-12-01T11:28:01.393Z,40.47
2017-12-01T11:30:29.381Z,40.64
2017-12-01T11:32:57.985Z,40.49
2017-12-01T11:35:26.447Z,40.48
2017-12-01T11:37:58.077Z,40.73
2017-12-01T11:40:25.942Z,40.86
2017-12-01T11:42:53.656Z,40.66
2017-12-01T11:45:23.256Z,40.46
2017-12-01T11:47:56.533Z,40.69
2017-12-01T11:50:24.593Z,40.65
2017-12-01T11:52:52.369Z,40.75
2017-12-01T11:55:28.640Z,40.83
2017-12-01T11:57:57.980Z,40.70
2017-12-01T12:00:26.433Z,40.79
2017-12-01T12:02:55.287Z,40.81
2017-12-01T12:05:22.836Z,41.09
2017-12-01T12:07:50.423Z,41.01
2017-12-01T12:10:21.992Z,41.12
2017-12-01T12:12:49.885Z,41.14
2017-12-01T12:15:17.864Z,41.04
2017-12-01T12:17:48.580Z,41.24
2017-12-01T12:20:16.278Z,40.77
2017-12-01T12:22:43.898Z,40.85
2017-12-01T12:25:11.540Z,40.83
2017-12-01T12:27:39.330Z,41.30
2017-12-01T12:30:07.184Z,41.30
2017-12-01T12:32:34.666Z,41.35
2017-12-01T12:35:04.585Z,40.80
2017-12-01T12:37:34.720Z,41.22
2017-12-01T12:40:03.748Z,40.63
2017-12-01T12:42:32.606Z,40.89
2017-12-01T12:45:00.657Z,41.22
2017-12-01T12:47:29.754Z,40.70
2017-12-01T12:49:57.427Z,40.83
2017-12-01T12:52:25.080Z,40.85
2017-12-01T12:54:55.276Z,40.91
2017-12-01T12:57:24.998Z,40.91
2017-12-01T12:59:54.367Z,41.01
2017-12-01T13:05:00.178Z,40.61
2017-12-01T13:07:28.320Z,41.19
2017-12-01T13:09:56.659Z,40.98
2017-12-01T13:12:26.167Z,41.14
2017-12-01T13:14:53.614Z,40.68
2017-12-01T13:17:22.513Z,41.04
2017-12-01T13:19:50.342Z,40.99
2017-12-01T13:22:19.545Z,41.11
2017-12-01T13:24:49.900Z,41.09
2017-12-01T13:27:18.055Z,41.44
2017-12-01T13:29:45.939Z,41.33
2017-12-01T13:32:19.064Z,41.19
2017-12-01T13:34:52.498Z,41.24
2017-12-01T13:37:20.066Z,41.05
2017-12-01T13:39:53.436Z,41.18
2017-12-01T13:42:22.698Z,41.05
2017-12-01T13:44:50.920Z,41.09
2017-12-01T13:47:19.140Z,40.92
2017-12-01T13:49:46.790Z,41.13
2017-12-01T13:52:15.579Z,41.19
2017-12-01T13:54:43.978Z,40.82
2017-12-01T13:57:13.626Z,40.89
2017-12-01T13:59:41.677Z,40.81
2017-12-01T14:02:14.562Z,42.20
2017-12-01T14:04:42.186Z,40.99
2017-12-01T14:07:10.322Z,41.11
2017-12-01T14:09:39.179Z,40.89
2017-12-01T14:12:07.116Z,40.67
2017-12-01T14:14:34.596Z,41.17
2017-12-01T14:17:04.601Z,41.69
2017-12-01T14:19:32.159Z,41.05
2017-12-01T14:21:59.720Z,41.06
2017-12-01T14:24:27.437Z,41.13
2017-12-01T14:26:55.369Z,40.74
2017-12-01T14:29:22.949Z,41.16
2017-12-01T14:31:53.844Z,41.29
2017-12-01T14:34:22.085Z,41.67
2017-12-01T14:36:51.561Z,41.72
2017-12-01T14:39:19.368Z,41.70
2017-12-01T14:41:48.142Z,41.81
2017-12-01T14:44:15.725Z,41.75
2017-12-01T14:46:43.462Z,42.02
2017-12-01T14:49:11.126Z,40.42
2017-12-01T14:51:38.629Z,39.64
2017-12-01T14:54:07.390Z,39.17
2017-12-01T14:56:35.484Z,38.97
2017-12-01T14:59:05.207Z,39.16
2017-12-01T15:01:32.925Z,38.71
2017-12-01T15:04:00.856Z,38.64
2017-12-01T15:09:30.675Z,38.43
2017-12-01T15:12:00.900Z,38.55
2017-12-01T15:14:31.123Z,38.40
2017-12-01T15:17:01.066Z,38.36
2017-12-01T15:19:29.034Z,38.31
2017-12-01T15:21:57.052Z,38.46
2017-12-01T15:24:25.159Z,38.32
2017-12-01T15:26:53.192Z,38.33
2017-12-01T15:29:20.740Z,38.44
2017-12-01T15:31:48.368Z,38.45
2017-12-01T15:34:16.131Z,38.25
2017-12-01T15:36:43.984Z,38.29
2017-12-01T15:39:11.574Z,38.31
2017-12-01T15:41:39.056Z,38.30
2017-12-01T15:44:06.687Z,38.53
2017-12-01T15:46:34.473Z,38.60
2017-12-01T15:49:02.127Z,38.42
2017-12-01T15:51:30.634Z,38.80
2017-12-01T15:53:58.129Z,38.83
2017-12-01T15:56:25.718Z,39.01
2017-12-01T15:58:53.253Z,39.12
2017-12-01T16:01:20.952Z,38.84
2017-12-01T16:03:48.723Z,38.74
2017-12-01T16:06:16.399Z,38.65
2017-12-01T16:08:50.085Z,38.77
2017-12-01T16:11:17.804Z,38.77
2017-12-01T16:13:45.318Z,38.67
2017-12-01T16:16:12.960Z,38.79
2017-12-01T16:18:40.409Z,38.83
2017-12-01T16:21:07.951Z,38.88
2017-12-01T16:23:35.495Z,39.07
2017-12-01T16:26:02.953Z,39.05
2017-12-01T16:28:30.386Z,39.01
2017-12-01T16:30:57.923Z,38.95
2017-12-01T16:33:25.358Z,38.90
2017-12-01T16:35:52.823Z,39.17
2017-12-01T16:38:20.320Z,38.93
2017-12-01T16:40:47.786Z,39.03
2017-12-01T16:43:15.326Z,39.02
2017-12-01T16:45:42.777Z,39.11
2017-12-01T16:48:10.176Z,39.25
2017-12-01T16:50:37.594Z,39.33
2017-12-01T16:53:05.154Z,39.23
2017-12-01T16:55:32.591Z,39.13
2017-12-01T16:58:00.062Z,39.14
2017-12-01T17:00:27.444Z,39.28
2017-12-01T17:02:54.960Z,39.35
2017-12-01T17:05:22.404Z,39.41
2017-12-01T17:07:49.789Z,39.30
2017-12-01T17:10:17.617Z,39.33
2017-12-01T17:12:45.144Z,39.37
2017-12-01T17:15:12.527Z,39.36
2017-12-01T17:17:39.951Z,39.45
2017-12-01T17:20:07.388Z,39.37
2017-12-01T17:22:34.846Z,39.40
2017-12-01T17:25:02.332Z,39.41
2017-12-01T17:27:29.714Z,39.42
2017-12-01T17:29:57.139Z,39.48
2017-12-01T17:32:24.519Z,39.64
2017-12-01T17:34:52.033Z,39.62
2017-12-01T17:37:19.450Z,39.61
2017-12-01T17:39:46.876Z,39.55
2017-12-01T17:42:14.296Z,39.56
2017-12-01T17:44:41.703Z,39.60
2017-12-01T17:47:09.218Z,39.69
2017-12-01T17:49:36.582Z,39.59
2017-12-01T17:52:04.090Z,39.74
2017-12-01T17:54:31.538Z,39.60
2017-12-01T17:56:58.898Z,39.78
2017-12-01T17:59:26.378Z,39.73
2017-12-01T18:01:53.753Z,39.86
2017-12-01T18:04:21.155Z,39.62
2017-12-01T18:06:48.550Z,39.48
2017-12-01T18:09:15.955Z,39.64
2017-12-01T18:11:43.326Z,39.52
2017-12-01T18:14:10.785Z,39.45
2017-12-01T18:16:38.158Z,39.50
2017-12-01T18:19:05.605Z,39.50
2017-12-01T18:21:33.036Z,39.35
2017-12-01T18:24:00.403Z,39.27
2017-12-01T18:26:27.816Z,39.24
2017-12-01T18:28:55.230Z,39.27
2017-12-01T18:31:22.655Z,39.35
2017-12-01T18:33:50.019Z,39.34
2017-12-01T18:36:17.410Z,39.33
2017-12-01T18:38:44.845Z,39.19
2017-12-01T18:41:12.285Z,39.25
2017-12-01T18:43:39.653Z,39.16
2017-12-01T18:46:07.056Z,39.26
2017-12-01T18:48:34.425Z,39.09
2017-12-01T18:51:01.883Z,39.11
2017-12-01T18:53:29.274Z,39.21
2017-12-01T18:55:56.675Z,39.19
2017-12-01T18:58:24.056Z,39.13
2017-12-01T19:00:51.422Z,39.14
2017-12-01T19:03:18.843Z,39.13
2017-12-01T19:05:46.250Z,39.12
2017-12-01T19:08:13.702Z,39.26
2017-12-01T19:10:41.182Z,39.09
2017-12-01T19:13:08.647Z,39.34
2017-12-01T19:15:36.015Z,39.38
2017-12-01T19:18:03.392Z,39.34
2017-12-01T19:20:30.871Z,39.73
2017-12-01T19:22:58.255Z,40.06
2017-12-01T19:25:25.743Z,40.00
2017-12-01T19:27:53.139Z,39.82
2017-12-01T19:30:20.561Z,40.02
2017-12-01T19:32:47.918Z,39.99
2017-12-01T19:35:15.465Z,39.93
2017-12-01T19:37:42.843Z,39.92
2017-12-01T19:40:10.269Z,40.08
2017-12-01T19:42:37.678Z,40.21
2017-12-01T19:45:05.100Z,40.25
2017-12-01T19:47:32.487Z,40.33
2017-12-01T19:49:59.867Z,40.32
2017-12-01T19:52:27.305Z,40.19
2017-12-01T19:54:54.686Z,40.27
2017-12-01T19:57:22.064Z,40.33
2017-12-01T19:59:49.521Z,40.37
2017-12-01T20:02:16.951Z,40.46
2017-12-01T20:04:44.374Z,40.53
2017-12-01T20:07:11.740Z,40.47
2017-12-01T20:09:39.109Z,40.46
2017-12-01T20:12:06.506Z,40.57
2017-12-01T20:14:33.866Z,40.55
2017-12-01T20:17:01.390Z,40.59
2017-12-01T20:19:28.839Z,40.63
2017-12-01T20:21:56.227Z,40.53
2017-12-01T20:24:23.616Z,40.77
2017-12-01T20:26:51.042Z,40.83
2017-12-01T20:29:18.454Z,40.79
2017-12-01T20:31:45.863Z,40.86
2017-12-01T20:34:13.292Z,40.97
2017-12-01T20:36:40.719Z,40.93
2017-12-01T20:39:08.111Z,40.99
2017-12-01T20:41:35.511Z,40.94
2017-12-01T20:44:02.871Z,40.88
2017-12-01T20:46:30.240Z,41.00
2017-12-01T20:48:57.721Z,40.98
2017-12-01T20:51:25.090Z,41.15
2017-12-01T20:53:52.439Z,41.09
2017-12-01T20:56:19.887Z,41.08
2017-12-01T20:58:47.234Z,41.08
2017-12-01T21:01:14.682Z,41.12
2017-12-01T21:03:42.069Z,41.20
2017-12-01T21:06:09.410Z,41.17
2017-12-01T21:08:36.821Z,41.12
2017-12-01T21:11:04.213Z,41.09
2017-12-01T21:13:31.574Z,41.13
2017-12-01T21:15:58.975Z,41.16
2017-12-01T21:18:26.392Z,41.22
2017-12-01T21:20:53.757Z,41.21
2017-12-01T21:23:21.115Z,41.24
2017-12-01T21:25:48.572Z,41.12
2017-12-01T21:28:15.965Z,41.24
2017-12-01T21:30:43.303Z,41.29
2017-12-01T21:33:10.703Z,41.32
2017-12-01T21:35:38.120Z,41.31
2017-12-01T21:38:05.490Z,41.25
2017-12-01T21:40:32.882Z,41.28
2017-12-01T21:43:00.290Z,41.31
2017-12-01T21:45:27.657Z,41.30
2017-12-01T21:47:55.013Z,41.37
2017-12-01T21:50:22.444Z,41.27
2017-12-01T21:52:50.465Z,41.32
2017-12-01T21:55:17.843Z,41.49
2017-12-01T21:57:45.266Z,41.55
2017-12-01T22:00:12.686Z,41.42
2017-12-01T22:02:40.088Z,41.50
2017-12-01T22:05:07.500Z,41.39
2017-12-01T22:07:34.890Z,41.44
2017-12-01T22:10:02.228Z,41.63
2017-12-01T22:12:29.599Z,41.44
2017-12-01T22:14:56.983Z,41.51
2017-12-01T22:17:24.364Z,41.41
2017-12-01T22:19:51.747Z,41.45
2017-12-01T22:22:19.107Z,41.58
2017-12-01T22:24:46.461Z,41.48
2017-12-01T22:27:13.913Z,41.45
2017-12-01T22:29:41.261Z,41.43
2017-12-01T22:32:08.665Z,41.57
2017-12-01T22:34:36.040Z,41.60
2017-12-01T22:37:03.382Z,41.66
2017-12-01T22:39:30.778Z,41.58
2017-12-01T22:41:58.215Z,41.54
2017-12-01T22:44:25.594Z,41.62
2017-12-01T22:46:52.958Z,41.57
2017-12-01T22:49:20.398Z,41.74
2017-12-01T22:51:47.747Z,41.69
2017-12-01T22:54:15.167Z,41.75
2017-12-01T22:56:42.531Z,41.70
2017-12-01T22:59:09.961Z,41.71
2017-12-01T23:01:37.302Z,41.79
2017-12-01T23:04:04.668Z,41.87
2017-12-01T23:06:32.050Z,41.75
2017-12-01T23:08:59.397Z,41.60
2017-12-01T23:11:26.816Z,41.87
2017-12-01T23:13:54.206Z,41.79
2017-12-01T23:16:21.591Z,41.78
2017-12-01T23:18:48.960Z,41.85
2017-12-01T23:21:16.372Z,41.82
2017-12-01T23:23:43.708Z,41.67
2017-12-01T23:26:11.123Z,41.78
2017-12-01T23:28:38.489Z,41.82
2017-12-01T23:31:05.902Z,41.86
2017-12-01T23:33:33.436Z,42.00
2017-12-01T23:36:00.800Z,41.98
2017-12-01T23:38:28.228Z,41.85
2017-12-01T23:40:55.626Z,41.83
2017-12-01T23:43:23.042Z,41.77
2017-12-01T23:45:50.607Z,41.79
2017-12-01T23:48:18.070Z,41.73
2017-12-01T23:50:45.492Z,41.83
2017-12-01T23:53:12.866Z,41.85
2017-12-01T23:55:40.281Z,41.90
2017-12-01T23:58:07.656Z,41.95
